Time;durP1;ratioP1;P1;durP2;ratioP2;P2;SDS_P1;SDS_P2;PMS_P1;PMS_P2;Temp;Humidity;BMP_temperature;BMP_pressure;BME280_temperature;BME280_humidity;BME280_pressure;Samples;Min_cycle;Max_cycle;Signal;HPM_P1;HPM_P2
2023/04/17 00:00:34;;;;;;;8.50;3.60;;;8.70;97.30;;;;;;4913737;29;20225;-86
2023/04/17 00:03:00;;;;;;;3.23;2.20;;;8.70;97.30;;;;;;4914240;29;20204;-88
2023/04/17 00:05:26;;;;;;;6.57;3.63;;;8.70;97.30;;;;;;4936650;29;20257;-88
2023/04/17 00:07:53;;;;;;;7.80;3.70;;;8.70;97.30;;;;;;4942555;29;20421;-90
2023/04/17 00:10:19;;;;;;;6.90;3.93;;;8.70;97.30;;;;;;4923266;29;20433;-87
2023/04/17 00:12:44;;;;;;;4.33;3.50;;;8.70;97.30;;;;;;4916346;29;20429;-87
2023/04/17 00:15:10;;;;;;;3.53;3.37;;;8.70;97.30;;;;;;4916139;29;20413;-86
2023/04/17 00:17:36;;;;;;;5.37;3.53;;;8.60;97.30;;;;;;4922872;29;20225;-86
2023/04/17 00:20:06;;;;;;;5.37;3.03;;;8.70;97.30;;;;;;4921604;29;20188;-89
2023/04/17 00:22:32;;;;;;;9.23;4.90;;;8.60;97.30;;;;;;4923250;29;20177;-87
2023/04/17 00:24:58;;;;;;;2.83;2.63;;;8.70;97.30;;;;;;4923481;29;20468;-88
2023/04/17 00:27:23;;;;;;;3.37;3.17;;;8.60;97.30;;;;;;4925748;29;20466;-88
2023/04/17 00:29:49;;;;;;;8.10;5.53;;;8.60;97.30;;;;;;4917689;29;20283;-88
2023/04/17 00:32:14;;;;;;;2.47;2.27;;;8.60;97.30;;;;;;4916177;29;20194;-89
2023/04/17 00:34:42;;;;;;;3.03;2.10;;;8.60;97.30;;;;;;4918061;29;20201;-88
2023/04/17 00:37:13;;;;;;;3.50;3.00;;;8.60;97.30;;;;;;4912206;29;20177;-85
2023/04/17 00:39:46;;;;;;;3.07;2.87;;;8.60;97.30;;;;;;4913360;29;20433;-88
2023/04/17 00:42:14;;;;;;;4.67;3.13;;;8.60;97.30;;;;;;4917559;29;20485;-88
2023/04/17 00:44:45;;;;;;;5.03;3.80;;;8.60;97.30;;;;;;4916860;29;20492;-88
2023/04/17 00:47:25;;;;;;;2.17;1.70;;;8.60;97.30;;;;;;4920085;29;20437;-88
2023/04/17 00:50:36;;;;;;;3.30;2.80;;;8.60;97.30;;;;;;4912033;29;20433;-86
2023/04/17 00:53:05;;;;;;;6.10;3.27;;;8.50;97.30;;;;;;4894367;29;20464;-86
2023/04/17 00:55:36;;;;;;;7.83;4.97;;;8.50;97.30;;;;;;4903271;29;20941;-87
2023/04/17 00:58:05;;;;;;;3.63;3.07;;;8.50;97.30;;;;;;4899642;29;20492;-86
2023/04/17 01:00:53;;;;;;;2.77;2.57;;;8.50;97.30;;;;;;4912284;29;20529;-84
2023/04/17 01:03:28;;;;;;;3.33;3.13;;;8.50;97.30;;;;;;4892343;29;20473;-86
2023/04/17 01:05:55;;;;;;;11.10;7.47;;;8.50;97.30;;;;;;4904193;29;20507;-86
2023/04/17 01:08:24;;;;;;;2.27;2.03;;;8.50;97.30;;;;;;4903891;29;20421;-84
2023/04/17 01:10:54;;;;;;;3.60;3.37;;;8.50;97.30;;;;;;4905272;29;20474;-86
2023/04/17 01:13:27;;;;;;;4.80;4.43;;;8.50;97.30;;;;;;4923128;29;20465;-88
2023/04/17 01:15:55;;;;;;;5.80;3.90;;;8.50;97.30;;;;;;4898457;29;20441;-85
2023/04/17 01:18:46;;;;;;;4.50;2.60;;;8.40;97.30;;;;;;4904516;29;20432;-86
2023/04/17 01:21:14;;;;;;;4.07;3.37;;;8.40;97.30;;;;;;4885840;29;20566;-87
2023/04/17 01:23:50;;;;;;;7.80;3.97;;;8.40;97.30;;;;;;4899535;29;20521;-86
2023/04/17 01:26:26;;;;;;;6.20;5.87;;;8.40;97.30;;;;;;4895050;29;20440;-86
2023/04/17 01:28:53;;;;;;;4.03;3.50;;;8.40;97.30;;;;;;4891102;29;20431;-86
2023/04/17 01:31:28;;;;;;;2.47;1.70;;;8.40;97.30;;;;;;4914465;29;20957;-86
2023/04/17 01:33:56;;;;;;;3.53;3.33;;;8.40;97.30;;;;;;4902569;29;20452;-86
2023/04/17 01:36:26;;;;;;;2.90;2.40;;;8.40;97.30;;;;;;4902056;29;20477;-85
2023/04/17 01:38:52;;;;;;;7.90;3.57;;;8.40;97.30;;;;;;4898773;29;20938;-87
2023/04/17 01:41:29;;;;;;;;;;;;;;;;;;;;;
2023/04/17 01:43:55;;;;;;;3.30;3.10;;;8.40;97.30;;;;;;4909129;29;20220;-86
2023/04/17 01:46:27;;;;;;;3.73;3.53;;;8.40;97.30;;;;;;4898966;29;20512;-84
2023/04/17 01:48:55;;;;;;;6.00;4.13;;;8.40;97.30;;;;;;4895917;29;20185;-86
2023/04/17 01:51:24;;;;;;;6.07;4.17;;;8.40;97.30;;;;;;4898181;29;20437;-85
2023/04/17 01:54:06;;;;;;;7.60;4.57;;;8.30;97.30;;;;;;4896480;29;20477;-85
2023/04/17 01:56:35;;;;;;;4.80;3.93;;;8.30;97.30;;;;;;4893333;29;20808;-86
2023/04/17 01:59:24;;;;;;;2.53;2.30;;;8.30;97.30;;;;;;4907645;29;20543;-86
2023/04/17 02:01:56;;;;;;;6.67;4.23;;;8.30;97.30;;;;;;4895473;29;20425;-86
2023/04/17 02:04:35;;;;;;;4.30;4.03;;;8.20;97.30;;;;;;4894090;29;20465;-86
2023/04/17 02:07:26;;;;;;;5.60;3.60;;;8.20;97.30;;;;;;4895411;29;20532;-87
2023/04/17 02:09:55;;;;;;;3.83;2.43;;;8.20;97.30;;;;;;4900456;29;20417;-86
2023/04/17 02:13:06;;;;;;;3.17;2.27;;;8.20;97.30;;;;;;4897391;29;20646;-87
2023/04/17 02:15:34;;;;;;;3.73;3.33;;;8.10;97.30;;;;;;4917899;29;20429;-86
2023/04/17 02:18:15;;;;;;;2.90;2.70;;;8.10;97.30;;;;;;4904506;29;20428;-87
2023/04/17 02:20:41;;;;;;;5.50;5.20;;;8.10;97.30;;;;;;4900498;29;20440;-87
2023/04/17 02:23:06;;;;;;;3.97;3.77;;;8.10;97.30;;;;;;4912916;28;20483;-86
2023/04/17 02:25:32;;;;;;;5.37;3.73;;;8.10;97.30;;;;;;4917742;29;20206;-87
2023/04/17 02:27:59;;;;;;;5.67;3.53;;;8.10;97.30;;;;;;4917597;29;20570;-87
2023/04/17 02:30:57;;;;;;;11.93;3.40;;;8.10;97.30;;;;;;4917015;29;20420;-84
2023/04/17 02:33:25;;;;;;;2.43;1.83;;;8.10;97.30;;;;;;4916731;29;20991;-85
2023/04/17 02:36:26;;;;;;;5.77;3.70;;;8.10;97.30;;;;;;4927559;29;20430;-85
2023/04/17 02:38:55;;;;;;;4.33;2.90;;;8.10;97.30;;;;;;4933335;29;20464;-87
2023/04/17 02:41:37;;;;;;;2.37;2.17;;;8.10;97.30;;;;;;4924383;29;20423;-87
2023/04/17 02:44:05;;;;;;;7.23;4.83;;;8.00;97.30;;;;;;4916632;29;20471;-87
2023/04/17 02:46:36;;;;;;;8.60;3.53;;;8.10;97.30;;;;;;4928014;29;20411;-87
2023/04/17 02:49:04;;;;;;;4.47;3.13;;;8.10;97.30;;;;;;4919966;29;20515;-86
2023/04/17 02:51:32;;;;;;;10.23;6.30;;;8.10;97.30;;;;;;4919311;29;20415;-88
2023/04/17 02:53:57;;;;;;;8.47;4.83;;;8.10;97.30;;;;;;4917175;29;20443;-88
2023/04/17 02:56:23;;;;;;;3.87;3.70;;;8.00;97.30;;;;;;4932344;29;20431;-89
2023/04/17 02:58:48;;;;;;;4.50;4.10;;;8.00;97.30;;;;;;4919042;29;20744;-87
2023/04/17 03:01:14;;;;;;;4.67;2.83;;;8.00;97.30;;;;;;4916338;29;20216;-87
2023/04/17 03:03:39;;;;;;;5.20;3.73;;;8.00;97.30;;;;;;4911039;29;20204;-88
2023/04/17 03:06:05;;;;;;;3.17;2.97;;;8.00;97.30;;;;;;4916371;29;20187;-87
2023/04/17 03:08:34;;;;;;;10.73;4.20;;;8.00;97.30;;;;;;4924718;29;20235;-87
2023/04/17 03:11:01;;;;;;;11.30;3.53;;;8.00;97.30;;;;;;4925784;29;20176;-88
2023/04/17 03:13:26;;;;;;;9.10;5.20;;;8.00;97.30;;;;;;4922710;29;20964;-87
2023/04/17 03:15:51;;;;;;;4.30;3.50;;;8.00;97.30;;;;;;4916676;29;20438;-87
2023/04/17 03:18:19;;;;;;;3.30;3.10;;;8.10;97.30;;;;;;4920755;29;20188;-87
2023/04/17 03:20:45;;;;;;;5.37;5.07;;;8.00;97.30;;;;;;4926744;29;20275;-87
2023/04/17 03:23:10;;;;;;;5.40;4.13;;;8.00;97.30;;;;;;4913528;29;20602;-87
2023/04/17 03:25:37;;;;;;;3.87;3.00;;;8.00;97.30;;;;;;4922563;29;20591;-86
2023/04/17 03:28:02;;;;;;;6.80;5.17;;;8.00;97.30;;;;;;4924009;29;20192;-86
2023/04/17 03:30:28;;;;;;;4.40;3.93;;;8.00;97.30;;;;;;4927444;29;20426;-87
2023/04/17 03:32:53;;;;;;;7.00;3.17;;;8.00;97.30;;;;;;4937907;29;20278;-89
2023/04/17 03:35:19;;;;;;;5.90;4.07;;;8.00;97.30;;;;;;4926001;29;20194;-86
2023/04/17 03:37:44;;;;;;;2.80;2.60;;;8.00;97.30;;;;;;4922423;29;20270;-86
2023/04/17 03:40:10;;;;;;;3.37;3.10;;;8.00;97.30;;;;;;4918105;29;20211;-87
2023/04/17 03:42:36;;;;;;;6.60;3.40;;;8.00;97.30;;;;;;4919980;29;20187;-87
2023/04/17 03:45:03;;;;;;;5.37;4.90;;;8.00;97.30;;;;;;4920711;29;20194;-86
2023/04/17 03:47:29;;;;;;;6.20;2.70;;;8.00;97.30;;;;;;4919926;29;20198;-86
2023/04/17 03:49:54;;;;;;;8.50;4.60;;;8.00;97.30;;;;;;4918670;29;21008;-87
2023/04/17 03:52:22;;;;;;;7.77;4.97;;;8.00;97.30;;;;;;4939381;29;20431;-89
2023/04/17 03:54:55;;;;;;;2.93;2.57;;;8.00;97.30;;;;;;4924106;29;20699;-87
2023/04/17 03:57:21;;;;;;;5.90;4.50;;;8.00;97.30;;;;;;4941688;29;20420;-86
2023/04/17 03:59:46;;;;;;;5.83;4.27;;;8.00;97.30;;;;;;4921264;29;20713;-89
2023/04/17 04:02:12;;;;;;;4.67;3.17;;;8.00;97.30;;;;;;4933634;29;20188;-87
2023/04/17 04:04:37;;;;;;;9.07;6.10;;;8.00;97.30;;;;;;4917776;29;20238;-88
2023/04/17 04:07:03;;;;;;;14.03;5.60;;;7.90;97.30;;;;;;4912080;29;20176;-88
2023/04/17 04:09:28;;;;;;;6.10;4.10;;;7.90;97.30;;;;;;4920346;29;20660;-88
2023/04/17 04:11:54;;;;;;;7.37;4.37;;;7.90;97.30;;;;;;4915960;29;20224;-87
2023/04/17 04:14:19;;;;;;;6.73;4.13;;;7.90;97.30;;;;;;4920184;29;20198;-89
2023/04/17 04:16:45;;;;;;;4.50;2.93;;;7.90;97.30;;;;;;4926485;29;20183;-87
2023/04/17 04:19:10;;;;;;;4.27;3.50;;;7.90;97.30;;;;;;4913755;29;20195;-86
2023/04/17 04:21:36;;;;;;;4.53;4.27;;;7.90;97.30;;;;;;4918831;29;20202;-87
2023/04/17 04:24:02;;;;;;;4.43;3.00;;;7.90;97.30;;;;;;4921265;29;20322;-88
2023/04/17 04:26:27;;;;;;;7.23;5.70;;;7.90;97.30;;;;;;4927646;29;20187;-87
2023/04/17 04:28:53;;;;;;;5.37;5.10;;;7.90;97.30;;;;;;4922786;29;20420;-84
2023/04/17 04:31:24;;;;;;;6.40;4.27;;;7.90;97.30;;;;;;4932310;29;20188;-88
2023/04/17 04:33:53;;;;;;;6.80;4.53;;;7.90;97.30;;;;;;4942925;29;20455;-87
2023/04/17 04:36:21;;;;;;;4.63;3.87;;;7.90;97.30;;;;;;4915499;29;20442;-88
2023/04/17 04:38:48;;;;;;;6.37;4.00;;;7.90;97.30;;;;;;4923127;29;20450;-89
2023/04/17 04:41:16;;;;;;;6.17;5.10;;;7.90;97.30;;;;;;4921986;29;20427;-87
2023/04/17 04:43:42;;;;;;;6.07;4.10;;;7.80;97.30;;;;;;4912352;29;20578;-87
2023/04/17 04:46:16;;;;;;;4.07;3.43;;;7.80;97.30;;;;;;4909980;29;20514;-87
2023/04/17 04:48:41;;;;;;;5.47;4.47;;;7.80;97.30;;;;;;4920175;29;20507;-87
2023/04/17 04:51:07;;;;;;;7.70;4.40;;;7.80;97.30;;;;;;4916792;29;20490;-89
2023/04/17 04:53:32;;;;;;;4.93;3.63;;;7.80;97.30;;;;;;4925432;29;20204;-87
2023/04/17 04:55:58;;;;;;;8.20;4.47;;;7.80;97.30;;;;;;4930477;29;20564;-87
2023/04/17 04:58:23;;;;;;;7.33;3.90;;;7.80;97.30;;;;;;4947133;29;20226;-88
2023/04/17 05:00:56;;;;;;;9.33;4.20;;;7.80;97.30;;;;;;4926499;29;20188;-87
2023/04/17 05:03:25;;;;;;;3.67;3.47;;;7.80;97.30;;;;;;4925723;29;20218;-88
2023/04/17 05:05:59;;;;;;;4.87;4.40;;;7.80;97.30;;;;;;4916694;29;20868;-88
2023/04/17 05:08:45;;;;;;;5.20;4.33;;;7.80;97.30;;;;;;4922857;29;20423;-87
2023/04/17 05:11:17;;;;;;;8.67;4.07;;;7.80;97.30;;;;;;4922020;29;20446;-87
2023/04/17 05:13:55;;;;;;;6.30;5.20;;;7.80;97.30;;;;;;4927824;29;20453;-88
2023/04/17 05:16:24;;;;;;;3.23;3.07;;;7.80;97.30;;;;;;4935946;29;20439;-87
2023/04/17 05:21:45;;;;;;;10.63;3.57;;;7.80;97.30;;;;;;4930037;29;20422;-87
2023/04/17 05:24:14;;;;;;;8.80;3.93;;;7.80;97.30;;;;;;4924898;29;20471;-88
2023/04/17 05:26:55;;;;;;;5.50;4.67;;;7.80;97.30;;;;;;4925701;29;20212;-87
2023/04/17 05:32:14;;;;;;;5.07;3.97;;;7.80;97.30;;;;;;4930532;29;20518;-86
2023/04/17 05:34:56;;;;;;;5.17;4.90;;;7.80;97.30;;;;;;4931309;29;20551;-87
2023/04/17 05:37:25;;;;;;;4.47;4.07;;;7.90;97.30;;;;;;4919602;29;20187;-88
2023/04/17 05:39:53;;;;;;;11.13;2.50;;;7.90;97.30;;;;;;4926271;29;20428;-87
2023/04/17 05:42:26;;;;;;;5.03;3.77;;;7.90;97.30;;;;;;4931515;29;20431;-86
2023/04/17 05:45:06;;;;;;;5.07;4.20;;;7.90;97.30;;;;;;4923524;29;20524;-88
2023/04/17 05:47:35;;;;;;;6.33;3.97;;;7.80;97.30;;;;;;4930093;29;20423;-88
2023/04/17 05:50:01;;;;;;;4.07;2.50;;;7.90;97.30;;;;;;4944219;29;20978;-88
2023/04/17 05:52:26;;;;;;;8.20;4.20;;;7.90;97.30;;;;;;4921687;29;20448;-89
2023/04/17 05:54:54;;;;;;;6.73;4.27;;;7.90;97.30;;;;;;4912920;29;20251;-88
2023/04/17 05:57:19;;;;;;;6.13;4.23;;;7.80;97.30;;;;;;4924443;29;20180;-89
2023/04/17 05:59:45;;;;;;;7.03;4.00;;;7.80;97.30;;;;;;4917430;29;20769;-89
2023/04/17 06:02:11;;;;;;;6.80;5.30;;;7.80;97.30;;;;;;4907558;29;20556;-88
2023/04/17 06:04:36;;;;;;;10.90;3.90;;;7.80;97.30;;;;;;4917447;29;20521;-89
2023/04/17 06:07:04;;;;;;;4.70;3.77;;;7.80;97.30;;;;;;4925198;29;20550;-88
2023/04/17 06:09:31;;;;;;;7.60;3.03;;;7.80;97.30;;;;;;4930643;29;20278;-89
2023/04/17 06:11:57;;;;;;;7.07;3.97;;;7.80;97.30;;;;;;4923969;29;20423;-88
2023/04/17 06:14:23;;;;;;;3.57;3.23;;;7.80;97.30;;;;;;4928685;29;20932;-90
2023/04/17 06:16:48;;;;;;;15.90;7.07;;;7.80;97.30;;;;;;4935077;29;20746;-88
2023/04/17 06:19:14;;;;;;;3.00;2.80;;;7.80;97.30;;;;;;4936158;29;20183;-88
2023/04/17 06:21:40;;;;;;;17.00;5.37;;;7.70;97.30;;;;;;4921051;29;20192;-89
2023/04/17 06:24:05;;;;;;;15.00;5.67;;;7.70;97.30;;;;;;4929058;29;20247;-88
2023/04/17 06:26:31;;;;;;;2.83;2.57;;;7.80;97.30;;;;;;4928058;29;20292;-88
2023/04/17 06:28:56;;;;;;;7.90;6.50;;;7.80;97.30;;;;;;4930029;29;20423;-88
2023/04/17 06:31:22;;;;;;;7.30;4.80;;;7.80;97.30;;;;;;4928228;29;20592;-89
2023/04/17 06:33:50;;;;;;;15.23;7.60;;;7.80;97.30;;;;;;4917829;29;20203;-89
2023/04/17 06:36:15;;;;;;;4.40;3.90;;;7.80;97.30;;;;;;4914772;29;20279;-90
2023/04/17 06:38:43;;;;;;;6.57;4.00;;;7.90;97.30;;;;;;4924922;29;21031;-89
2023/04/17 06:41:11;;;;;;;3.03;2.83;;;7.90;97.30;;;;;;4928267;29;20676;-90
2023/04/17 06:43:36;;;;;;;5.97;4.33;;;7.90;97.30;;;;;;4924913;29;20477;-88
2023/04/17 06:46:02;;;;;;;4.70;4.23;;;8.00;97.30;;;;;;4929728;29;20506;-90
2023/04/17 06:48:27;;;;;;;19.20;4.83;;;7.90;97.30;;;;;;4936089;29;20688;-89
2023/04/17 06:50:52;;;;;;;7.10;4.80;;;7.90;97.30;;;;;;4930596;29;20228;-88
2023/04/17 06:53:20;;;;;;;8.43;4.37;;;7.90;97.30;;;;;;4917426;29;20227;-89
2023/04/17 06:55:46;;;;;;;5.07;4.77;;;7.80;97.30;;;;;;4917647;29;20279;-88
2023/04/17 06:58:12;;;;;;;5.47;4.73;;;7.80;97.30;;;;;;4925705;29;20451;-89
2023/04/17 07:00:39;;;;;;;3.10;2.90;;;7.80;97.30;;;;;;4925013;29;20183;-90
2023/04/17 07:03:05;;;;;;;4.07;3.80;;;7.90;97.30;;;;;;4918030;29;20215;-90
2023/04/17 07:05:30;;;;;;;15.00;5.80;;;7.90;97.30;;;;;;4932496;29;20430;-89
2023/04/17 07:07:56;;;;;;;8.87;4.73;;;7.90;97.30;;;;;;4916787;29;20172;-89
2023/04/17 07:10:22;;;;;;;9.50;5.10;;;7.90;97.30;;;;;;4934119;29;20605;-89
2023/04/17 07:12:47;;;;;;;6.27;4.37;;;7.90;97.30;;;;;;4922160;29;20180;-89
2023/04/17 07:15:13;;;;;;;4.97;4.10;;;7.90;97.30;;;;;;4917355;29;20232;-89
2023/04/17 07:17:38;;;;;;;4.50;3.60;;;8.00;97.30;;;;;;4927463;29;20180;-90
2023/04/17 07:20:06;;;;;;;6.57;5.80;;;8.00;97.30;;;;;;4933909;29;20275;-89
2023/04/17 07:22:33;;;;;;;5.43;4.43;;;8.00;97.30;;;;;;4947221;29;20176;-89
2023/04/17 07:25:01;;;;;;;6.93;4.10;;;8.00;97.30;;;;;;4925742;29;20909;-89
2023/04/17 07:27:26;;;;;;;5.40;5.10;;;8.10;97.30;;;;;;4925036;29;20427;-90
2023/04/17 07:29:54;;;;;;;9.77;5.53;;;8.10;97.30;;;;;;4927786;29;20423;-90
2023/04/17 07:32:20;;;;;;;6.30;3.33;;;8.10;97.30;;;;;;4925079;29;20176;-90
2023/04/17 07:34:47;;;;;;;8.33;6.00;;;8.10;97.30;;;;;;4945099;28;20948;-91
2023/04/17 07:37:14;;;;;;;10.23;6.50;;;8.00;97.30;;;;;;4917429;29;20434;-90
2023/04/17 07:39:39;;;;;;;6.47;5.70;;;8.00;97.30;;;;;;4918369;29;20419;-91
2023/04/17 07:42:07;;;;;;;8.20;6.20;;;8.10;97.30;;;;;;4927520;29;20534;-89
2023/04/17 07:44:33;;;;;;;5.27;4.20;;;8.10;97.30;;;;;;4917771;29;20232;-90
2023/04/17 07:47:06;;;;;;;5.57;4.03;;;8.10;97.30;;;;;;4922003;29;20420;-90
2023/04/17 07:49:34;;;;;;;7.70;4.37;;;8.10;97.30;;;;;;4931138;29;20487;-90
2023/04/17 07:52:00;;;;;;;6.90;6.00;;;8.10;97.30;;;;;;4938839;29;20947;-90
2023/04/17 07:54:26;;;;;;;4.23;3.90;;;8.20;97.30;;;;;;4934781;29;20457;-90
2023/04/17 07:56:51;;;;;;;3.57;3.40;;;8.20;97.30;;;;;;4916379;29;20193;-91
2023/04/17 07:59:17;;;;;;;10.67;5.60;;;8.30;97.30;;;;;;4923742;29;20518;-90
2023/04/17 08:01:42;;;;;;;7.73;5.70;;;8.30;97.30;;;;;;4923364;29;20199;-91
2023/04/17 08:04:08;;;;;;;6.03;2.90;;;8.40;97.30;;;;;;4917244;29;20207;-90
2023/04/17 08:06:33;;;;;;;15.47;5.03;;;8.40;97.30;;;;;;4919261;29;20187;-90
2023/04/17 08:09:01;;;;;;;7.67;5.20;;;8.50;97.30;;;;;;4931002;29;20191;-91
2023/04/17 08:11:27;;;;;;;6.67;5.33;;;8.50;97.30;;;;;;4927933;29;20187;-90
2023/04/17 08:13:53;;;;;;;5.50;5.20;;;8.50;97.30;;;;;;4921288;29;20448;-90
2023/04/17 08:16:19;;;;;;;10.50;5.40;;;8.60;97.30;;;;;;4925590;29;20446;-90
2023/04/17 08:18:44;;;;;;;6.43;4.10;;;8.70;97.30;;;;;;4932779;29;20459;-90
2023/04/17 08:21:12;;;;;;;11.33;6.10;;;8.80;97.30;;;;;;4923977;29;20175;-90
2023/04/17 08:23:39;;;;;;;8.70;3.60;;;8.80;97.30;;;;;;4906776;29;20237;-90
2023/04/17 08:26:05;;;;;;;10.23;6.30;;;8.80;97.30;;;;;;4906022;29;20436;-90
2023/04/17 08:28:33;;;;;;;6.20;4.67;;;8.90;97.30;;;;;;4905664;29;20425;-91
2023/04/17 08:31:03;;;;;;;6.53;4.10;;;8.90;97.30;;;;;;4923791;29;20165;-95
2023/04/17 08:33:36;;;;;;;6.13;3.83;;;9.00;97.30;;;;;;4916231;29;20555;-90
2023/04/17 08:36:08;;;;;;;15.03;4.97;;;9.10;97.30;;;;;;4899858;29;20484;-91
2023/04/17 08:38:34;;;;;;;3.90;2.90;;;9.20;97.30;;;;;;4902841;29;20960;-89
2023/04/17 08:41:07;;;;;;;5.50;4.93;;;9.30;97.30;;;;;;4900468;29;20425;-90
2023/04/17 08:43:36;;;;;;;6.20;3.10;;;9.40;97.30;;;;;;4905348;29;20475;-90
2023/04/17 08:46:05;;;;;;;6.93;3.47;;;9.40;97.30;;;;;;4900179;29;20426;-90
2023/04/17 08:48:46;;;;;;;5.73;5.30;;;9.50;97.30;;;;;;4901169;29;20489;-90
2023/04/17 08:51:15;;;;;;;4.43;4.13;;;9.60;97.30;;;;;;4903249;29;20427;-91
2023/04/17 08:53:43;;;;;;;8.37;4.90;;;9.70;97.30;;;;;;4900454;29;20445;-92
2023/04/17 08:56:16;;;;;;;10.27;5.73;;;9.90;97.30;;;;;;4900055;29;20505;-91
2023/04/17 08:58:45;;;;;;;6.17;5.00;;;10.10;97.30;;;;;;4907801;29;20859;-91
2023/04/17 09:01:19;;;;;;;5.50;3.97;;;10.30;97.30;;;;;;4899502;29;20990;-91
2023/04/17 09:04:06;;;;;;;4.60;3.40;;;10.50;97.30;;;;;;4913643;29;20469;-91
2023/04/17 09:07:48;;;;;;;;;;;;;;;;;;;;;
2023/04/17 09:10:17;;;;;;;5.50;4.23;;;10.50;97.30;;;;;;4876041;29;20430;-91
2023/04/17 09:13:29;;;;;;;2.60;2.37;;;10.50;97.30;;;;;;4889993;29;20445;-93
2023/04/17 09:22:46;;;;;;;3.90;3.10;;;10.30;97.30;;;;;;4756125;30;20427;-91
2023/04/17 09:25:47;;;;;;;7.90;3.90;;;10.30;97.30;;;;;;4800309;29;20478;-91
2023/04/17 09:28:15;;;;;;;5.80;2.57;;;10.20;97.30;;;;;;4826577;29;20460;-91
2023/04/17 09:30:43;;;;;;;4.93;2.47;;;10.20;97.30;;;;;;4869356;29;20562;-91
2023/04/17 09:33:14;;;;;;;9.23;3.77;;;10.20;97.30;;;;;;4932075;29;20447;-91
2023/04/17 09:35:45;;;;;;;6.30;3.30;;;10.10;97.30;;;;;;4925595;29;20943;-91
2023/04/17 09:38:13;;;;;;;3.13;2.93;;;10.10;97.30;;;;;;4918977;29;20424;-91
2023/04/17 09:40:46;;;;;;;4.57;4.10;;;10.10;97.30;;;;;;4927062;29;20818;-91
2023/04/17 09:43:16;;;;;;;3.13;3.00;;;10.10;97.30;;;;;;4930970;29;20465;-92
2023/04/17 09:46:37;;;;;;;6.30;3.70;;;10.10;97.30;;;;;;4917806;29;20456;-93
2023/04/17 09:50:26;;;;;;;4.00;2.17;;;10.10;97.30;;;;;;4923850;29;20428;-91
2023/04/17 09:52:27;;;;;;;6.00;4.43;;;10.10;97.30;;;;;;4923663;28;20503;-90
2023/04/17 09:57:37;;;;;;;3.70;3.17;;;10.30;97.30;;;;;;4991164;23;20493;-91
2023/04/17 10:00:17;;;;;;;5.37;5.07;;;10.40;97.30;;;;;;4971143;28;20422;-92
2023/04/17 10:03:06;;;;;;;5.13;4.23;;;10.40;97.30;;;;;;4963089;28;20975;-91
2023/04/17 10:05:51;;;;;;;;;;;;;;;;;;;;;
2023/04/17 10:08:27;;;;;;;9.87;4.83;;;10.30;97.30;;;;;;4944365;29;20408;-86
2023/04/17 10:11:05;;;;;;;4.40;2.80;;;10.30;97.30;;;;;;4933083;29;20474;-92
2023/04/17 10:14:17;;;;;;;9.10;5.17;;;10.30;97.30;;;;;;4931861;29;20483;-91
2023/04/17 10:16:47;;;;;;;2.53;2.33;;;10.40;97.30;;;;;;4938783;29;20806;-92
2023/04/17 10:22:39;;;;;;;8.83;3.57;;;10.40;97.30;;;;;;4924158;29;20419;-91
2023/04/17 10:25:14;;;;;;;5.00;4.77;;;10.40;97.30;;;;;;4941536;29;20907;-90
2023/04/17 10:27:47;;;;;;;5.07;4.00;;;10.30;97.30;;;;;;4922827;29;21190;-92
2023/04/17 10:30:16;;;;;;;5.47;5.10;;;10.30;97.30;;;;;;4935646;29;20473;-93
2023/04/17 10:32:45;;;;;;;4.30;3.40;;;10.40;97.30;;;;;;4932914;29;20420;-92
2023/04/17 10:35:18;;;;;;;11.80;3.93;;;10.50;97.30;;;;;;4927069;29;20427;-92
2023/04/17 10:37:55;;;;;;;9.57;4.23;;;10.60;97.30;;;;;;4924744;29;20849;-91
2023/04/17 10:40:43;;;;;;;8.40;3.07;;;10.60;97.30;;;;;;4937497;29;20433;-92
2023/04/17 10:43:16;;;;;;;3.50;2.80;;;10.60;97.30;;;;;;4895386;29;20460;-92
2023/04/17 10:46:04;;;;;;;2.03;1.90;;;10.50;97.30;;;;;;4943281;29;20415;-92
2023/04/17 10:49:17;;;;;;;11.80;3.13;;;10.60;97.30;;;;;;4934390;29;20416;-91
2023/04/17 10:51:45;;;;;;;2.97;2.80;;;10.70;97.30;;;;;;4919573;29;20428;-92
2023/04/17 10:54:16;;;;;;;2.40;2.20;;;10.70;97.30;;;;;;4926424;29;20525;-92
2023/04/17 10:56:48;;;;;;;6.97;3.00;;;10.70;97.30;;;;;;4941938;29;20478;-92
2023/04/17 10:59:30;;;;;;;;;;;;;;;;;;;;;
2023/04/17 11:01:59;;;;;;;4.03;3.83;;;10.50;97.30;;;;;;4930144;29;20415;-92
2023/04/17 11:04:46;;;;;;;2.40;2.20;;;10.50;97.30;;;;;;4917200;29;20474;-92
2023/04/17 11:07:36;;;;;;;6.13;3.73;;;10.40;97.30;;;;;;4924146;29;20483;-91
2023/04/17 11:10:14;;;;;;;2.93;2.73;;;10.30;97.30;;;;;;4918899;29;20510;-93
2023/04/17 11:12:57;;;;;;;11.10;5.47;;;10.30;97.30;;;;;;4924370;29;20435;-92
2023/04/17 11:15:56;;;;;;;3.77;3.10;;;10.30;97.30;;;;;;4926261;29;20511;-91
2023/04/17 11:18:45;;;;;;;4.53;3.53;;;10.30;97.30;;;;;;4918742;29;20434;-91
2023/04/17 11:21:17;;;;;;;5.10;3.17;;;10.30;97.30;;;;;;4907651;29;20416;-92
2023/04/17 11:24:35;;;;;;;7.47;4.43;;;10.30;97.30;;;;;;4920776;29;20464;-92
2023/04/17 11:27:26;;;;;;;4.60;3.43;;;10.40;97.30;;;;;;4937459;29;20462;-92
2023/04/17 11:30:27;;;;;;;3.63;2.97;;;10.50;97.30;;;;;;4919691;29;20422;-91
2023/04/17 11:33:57;;;;;;;3.80;3.60;;;10.60;97.30;;;;;;4926973;29;20428;-92
2023/04/17 11:36:57;;;;;;;4.63;3.73;;;10.80;97.30;;;;;;4895286;29;20835;-91
2023/04/17 11:39:37;;;;;;;5.10;3.33;;;10.90;97.30;;;;;;4831816;29;20443;-92
2023/04/17 11:42:05;;;;;;;3.23;3.03;;;11.10;97.30;;;;;;4865055;29;20408;-93
2023/04/17 11:44:34;;;;;;;5.30;3.90;;;11.20;97.30;;;;;;4919684;29;20463;-91
2023/04/17 11:47:07;;;;;;;7.13;3.30;;;11.30;97.30;;;;;;4930213;29;20426;-92
2023/04/17 11:49:43;;;;;;;3.20;2.20;;;11.40;97.30;;;;;;4946399;29;20574;-91
2023/04/17 11:52:16;;;;;;;5.83;3.20;;;11.50;97.30;;;;;;4929339;29;20435;-92
2023/04/17 11:54:44;;;;;;;4.50;3.57;;;11.60;97.30;;;;;;4943949;29;20436;-92
2023/04/17 11:57:15;;;;;;;3.47;3.30;;;11.70;97.30;;;;;;4931328;29;20463;-91
2023/04/17 11:59:46;;;;;;;5.53;4.00;;;12.10;97.30;;;;;;4925626;29;20893;-91
2023/04/17 12:05:17;;;;;;;4.40;3.30;;;12.60;97.30;;;;;;4935797;29;20467;-91
2023/04/17 12:07:45;;;;;;;4.40;3.87;;;12.50;96.50;;;;;;4945643;29;20439;-92
2023/04/17 12:10:16;;;;;;;4.30;3.60;;;12.30;96.90;;;;;;4945391;29;20495;-91
2023/04/17 12:12:47;;;;;;;3.03;2.90;;;12.10;97.10;;;;;;4922608;29;20498;-93
2023/04/17 12:15:16;;;;;;;9.20;2.77;;;12.00;97.30;;;;;;4927339;29;20471;-91
2023/04/17 12:17:45;;;;;;;11.90;2.50;;;12.10;97.30;;;;;;4930735;29;20465;-92
2023/04/17 12:20:26;;;;;;;8.20;2.97;;;12.00;96.70;;;;;;4929619;29;20443;-92
2023/04/17 12:22:55;;;;;;;6.67;4.37;;;11.90;95.80;;;;;;4930939;29;20431;-92
2023/04/17 12:25:24;;;;;;;8.00;4.17;;;12.00;96.30;;;;;;4929322;29;20431;-92
2023/04/17 12:27:58;;;;;;;4.40;3.63;;;12.40;96.90;;;;;;4922785;29;20451;-91
2023/04/17 12:30:28;;;;;;;4.93;3.33;;;12.80;95.50;;;;;;4939578;29;20424;-92
2023/04/17 12:32:57;;;;;;;6.60;3.27;;;13.30;94.40;;;;;;4939392;29;20439;-92
2023/04/17 12:35:26;;;;;;;3.07;2.60;;;13.60;95.50;;;;;;4937651;29;20476;-92
2023/04/17 12:37:56;;;;;;;8.10;3.63;;;13.50;94.90;;;;;;4918944;29;20416;-91
2023/04/17 12:40:25;;;;;;;3.03;2.27;;;13.40;94.30;;;;;;4919495;29;20427;-92
2023/04/17 12:43:17;;;;;;;7.30;3.67;;;13.10;95.10;;;;;;4922305;29;20502;-92
2023/04/17 12:49:57;;;;;;;4.13;3.20;;;12.60;96.30;;;;;;4927663;29;20502;-89
2023/04/17 12:52:26;;;;;;;2.67;2.00;;;12.40;96.30;;;;;;4928469;29;20416;-93
2023/04/17 12:54:58;;;;;;;5.00;4.10;;;12.20;96.70;;;;;;4922524;29;20440;-92
2023/04/17 12:57:28;;;;;;;3.40;2.97;;;12.20;97.30;;;;;;4918655;29;20464;-91
2023/04/17 12:59:56;;;;;;;8.10;3.13;;;12.20;96.90;;;;;;4927929;29;20428;-92
2023/04/17 13:02:35;;;;;;;6.00;3.53;;;12.20;97.30;;;;;;4923419;29;20427;-91
2023/04/17 13:05:27;;;;;;;6.43;3.77;;;12.50;97.30;;;;;;4921474;29;20563;-91
2023/04/17 13:08:13;;;;;;;2.93;2.73;;;12.90;97.20;;;;;;4923246;29;20466;-91
2023/04/17 13:10:46;;;;;;;4.10;3.37;;;12.90;94.90;;;;;;4920637;29;21135;-91
2023/04/17 13:13:15;;;;;;;8.37;4.50;;;12.70;94.90;;;;;;4922700;29;20439;-91
2023/04/17 13:15:55;;;;;;;3.53;3.10;;;12.60;95.90;;;;;;4922991;29;20783;-92
2023/04/17 13:18:26;;;;;;;5.03;4.20;;;12.50;95.70;;;;;;4936951;29;20409;-92
2023/04/17 13:20:57;;;;;;;5.63;2.93;;;12.30;96.80;;;;;;4938793;29;20433;-88
2023/04/17 13:23:47;;;;;;;6.20;3.27;;;12.20;96.90;;;;;;4923202;29;20468;-91
2023/04/17 13:26:47;;;;;;;7.50;3.90;;;12.20;97.30;;;;;;4919307;29;20420;-90
2023/04/17 13:29:37;;;;;;;2.27;2.07;;;12.30;96.70;;;;;;4914578;29;20420;-92
2023/04/17 13:32:06;;;;;;;6.20;3.40;;;12.60;96.10;;;;;;4921242;29;20413;-92
2023/04/17 13:48:15;;;;;;;3.63;2.70;;;12.60;94.00;;;;;;604103;23;20780;-90
2023/04/17 13:50:41;;;;;;;5.80;5.10;;;12.60;94.20;;;;;;4955627;28;20450;-92
2023/04/17 13:53:07;;;;;;;3.03;2.83;;;12.60;94.40;;;;;;4964763;28;20433;-92
2023/04/17 13:55:35;;;;;;;4.10;3.57;;;12.50;94.90;;;;;;4962402;28;20449;-90
2023/04/17 13:58:00;;;;;;;5.67;4.93;;;12.40;94.80;;;;;;4959711;28;20669;-91
2023/04/17 14:00:26;;;;;;;5.17;3.33;;;12.30;94.40;;;;;;4962614;28;20463;-91
2023/04/17 14:02:51;;;;;;;3.17;2.97;;;12.20;94.00;;;;;;4958470;28;20752;-91